Positano — IJZJ — position and weather

sailwx.info

Track history (hours):
 
Tides and Currents Weather Stations Pressure Air Temp Water Temp Dewpoint Dewpoint Depression Visibility Wind Speed Wind Dir Waves Ship Positions

Positano

Last reported at 2015-Aug-03 09:32 UTC. Time now 2015-Aug-03 13:09 UTC.
Position N 40°33' E 014°12'.

Length 12 m.

Type: Ship. MMSI: 247208300.

Date/timePositionNaut miles runAvg speedWind from/ knotsBaromVisibWave heightAir tempDewpointWater temp
2015-Aug-03 09:32N 40°33' E 014°12'7 6.9
2015-Aug-03 08:33N 40°36' E 014°19'1 0.0
2015-Aug-02 17:33N 40°37' E 014°20'1 1.1
2015-Aug-02 16:33N 40°36' E 014°19'7 5.5
2015-Aug-02 15:22N 40°32' E 014°12'3 3.8
2015-Aug-02 14:33N 40°34' E 014°15'0 0.1
2015-Aug-02 08:09N 40°34' E 014°16'1 1.9
2015-Aug-02 07:32N 40°34' E 014°17'3 0.2
2015-Aug-01 17:12N 40°37' E 014°20'0 0.0
2015-Aug-01 16:29N 40°37' E 014°20'7 3.6
2015-Aug-01 14:30N 40°37' E 014°29'0 0.0
2015-Aug-01 13:33N 40°37' E 014°29'8 1.3
2015-Aug-01 07:28N 40°35' E 014°19'2 0.1
2015-Jul-31 17:33N 40°37' E 014°20'6 4.4
2015-Jul-31 16:17N 40°32' E 014°15'7 0.3
2015-Jul-30 16:33N 40°38' E 014°21'6 3.0
2015-Jul-30 14:25N 40°37' E 014°29'0 0.2
2015-Jul-30 13:29N 40°37' E 014°29'8 1.3
2015-Jul-30 07:20N 40°35' E 014°19'2 0.1
2015-Jul-28 16:33N 40°37' E 014°20'5 3.7
2015-Jul-28 15:09N 40°37' E 014°27'2 3.4
2015-Jul-28 14:33N 40°37' E 014°29'0 0.0
2015-Jul-28 13:32N 40°37' E 014°29'1 0.3
2015-Jul-28 08:24N 40°36' E 014°29'8 8.7
2015-Jul-28 07:32N 40°34' E 014°19'2 0.2
2015-Jul-27 17:18N 40°37' E 014°20'4 5.2
2015-Jul-27 16:34N 40°39' E 014°24'8 7.5
2015-Jul-27 15:33N 40°34' E 014°16'1 1.1
2015-Jul-27 14:23N 40°33' E 014°16'5 5.4
2015-Jul-27 13:33N 40°37' E 014°20'0 0.2
2015-Jul-27 12:32N 40°37' E 014°20'0 0.0
2015-Jul-27 11:32N 40°37' E 014°20'1 0.9
2015-Jul-27 10:33N 40°36' E 014°19'3 1.7
2015-Jul-27 08:33N 40°34' E 014°16'8 8.2
2015-Jul-27 07:33N 40°39' E 014°24'4 0.3
2015-Jul-26 17:11N 40°37' E 014°20'1 1.2
2015-Jul-26 16:33N 40°36' E 014°19'7 5.9
2015-Jul-26 15:25N 40°33' E 014°12'3 3.3
2015-Jul-26 14:33N 40°33' E 014°15'0 0.0
2015-Jul-26 13:33N 40°33' E 014°15'0 0.0
2015-Jul-26 12:34N 40°33' E 014°15'0 0.0
2015-Jul-26 11:34N 40°33' E 014°15'0 0.0
2015-Jul-26 10:33N 40°33' E 014°15'0 0.0
2015-Jul-26 09:33N 40°33' E 014°15'0 0.0
2015-Jul-26 08:33N 40°33' E 014°15'3 2.4
2015-Jul-26 07:30N 40°35' E 014°18'2 0.2
2015-Jul-25 17:31N 40°37' E 014°20'0 0.0
2015-Jul-25 16:32N 40°37' E 014°20'7 3.5
2015-Jul-25 14:31N 40°37' E 014°29'1 0.2
2015-Jul-25 08:23N 40°36' E 014°30'7 8.4
2015-Jul-25 07:33N 40°34' E 014°22'2 0.2
2015-Jul-24 17:14N 40°37' E 014°20'0 0.1
2015-Jul-24 14:33N 40°37' E 014°20'4 4.0
2015-Jul-24 13:33N 40°34' E 014°16'3 0.9
2015-Jul-24 10:29N 40°34' E 014°12'0 0.0
2015-Jul-24 09:32N 40°34' E 014°12'  
Track history (hours):
 
Tides and Currents Weather Stations Pressure Air Temp Water Temp Dewpoint Dewpoint Depression Visibility Wind Speed Wind Dir Waves Ship Positions

Positano

Last reported at 2015-Aug-03 09:32 UTC. Time now 2015-Aug-03 13:09 UTC.
Position N 40°33' E 014°12'.

Length 12 m.

Type: Ship. MMSI: 247208300.

Date/timePositionNaut miles runAvg speedWind from/ knotsBaromVisibWave heightAir tempDewpointWater temp
2015-Aug-03 09:32N 40°33' E 014°12'7 6.9
2015-Aug-03 08:33N 40°36' E 014°19'1 0.0
2015-Aug-02 17:33N 40°37' E 014°20'1 1.1
2015-Aug-02 16:33N 40°36' E 014°19'7 5.5
2015-Aug-02 15:22N 40°32' E 014°12'3 3.8
2015-Aug-02 14:33N 40°34' E 014°15'0 0.1
2015-Aug-02 08:09N 40°34' E 014°16'1 1.9
2015-Aug-02 07:32N 40°34' E 014°17'3 0.2
2015-Aug-01 17:12N 40°37' E 014°20'0 0.0
2015-Aug-01 16:29N 40°37' E 014°20'7 3.6
2015-Aug-01 14:30N 40°37' E 014°29'0 0.0
2015-Aug-01 13:33N 40°37' E 014°29'8 1.3
2015-Aug-01 07:28N 40°35' E 014°19'2 0.1
2015-Jul-31 17:33N 40°37' E 014°20'6 4.4
2015-Jul-31 16:17N 40°32' E 014°15'7 0.3
2015-Jul-30 16:33N 40°38' E 014°21'6 3.0
2015-Jul-30 14:25N 40°37' E 014°29'0 0.2
2015-Jul-30 13:29N 40°37' E 014°29'8 1.3
2015-Jul-30 07:20N 40°35' E 014°19'2 0.1
2015-Jul-28 16:33N 40°37' E 014°20'5 3.7
2015-Jul-28 15:09N 40°37' E 014°27'2 3.4
2015-Jul-28 14:33N 40°37' E 014°29'0 0.0
2015-Jul-28 13:32N 40°37' E 014°29'1 0.3
2015-Jul-28 08:24N 40°36' E 014°29'8 8.7
2015-Jul-28 07:32N 40°34' E 014°19'2 0.2
2015-Jul-27 17:18N 40°37' E 014°20'4 5.2
2015-Jul-27 16:34N 40°39' E 014°24'8 7.5
2015-Jul-27 15:33N 40°34' E 014°16'1 1.1
2015-Jul-27 14:23N 40°33' E 014°16'5 5.4
2015-Jul-27 13:33N 40°37' E 014°20'0 0.2
2015-Jul-27 12:32N 40°37' E 014°20'0 0.0
2015-Jul-27 11:32N 40°37' E 014°20'1 0.9
2015-Jul-27 10:33N 40°36' E 014°19'3 1.7
2015-Jul-27 08:33N 40°34' E 014°16'8 8.2
2015-Jul-27 07:33N 40°39' E 014°24'4 0.3
2015-Jul-26 17:11N 40°37' E 014°20'1 1.2
2015-Jul-26 16:33N 40°36' E 014°19'7 5.9
2015-Jul-26 15:25N 40°33' E 014°12'3 3.3
2015-Jul-26 14:33N 40°33' E 014°15'0 0.0
2015-Jul-26 13:33N 40°33' E 014°15'0 0.0
2015-Jul-26 12:34N 40°33' E 014°15'0 0.0
2015-Jul-26 11:34N 40°33' E 014°15'0 0.0
2015-Jul-26 10:33N 40°33' E 014°15'0 0.0
2015-Jul-26 09:33N 40°33' E 014°15'0 0.0
2015-Jul-26 08:33N 40°33' E 014°15'3 2.4
2015-Jul-26 07:30N 40°35' E 014°18'2 0.2
2015-Jul-25 17:31N 40°37' E 014°20'0 0.0
2015-Jul-25 16:32N 40°37' E 014°20'7 3.5
2015-Jul-25 14:31N 40°37' E 014°29'1 0.2
2015-Jul-25 08:23N 40°36' E 014°30'7 8.4
2015-Jul-25 07:33N 40°34' E 014°22'2 0.2
2015-Jul-24 17:14N 40°37' E 014°20'0 0.1
2015-Jul-24 14:33N 40°37' E 014°20'4 4.0
2015-Jul-24 13:33N 40°34' E 014°16'3 0.9
2015-Jul-24 10:29N 40°34' E 014°12'0 0.0
2015-Jul-24 09:32N 40°34' E 014°12'  

Dump ship's entire track history